sensor_id;sensor_type;location;lat;lon;timestamp;temperature;humidity
18690;DHT22;9782;52.930;15.562;2022-07-18T00:00:38;13.70;99.90
18690;DHT22;9782;52.930;15.562;2022-07-18T00:03:05;13.70;99.90
18690;DHT22;9782;52.930;15.562;2022-07-18T00:05:32;13.70;99.90
18690;DHT22;9782;52.930;15.562;2022-07-18T00:07:59;13.70;99.90
18690;DHT22;9782;52.930;15.562;2022-07-18T00:10:26;13.70;99.90
18690;DHT22;9782;52.930;15.562;2022-07-18T00:12:55;13.80;99.90
18690;DHT22;9782;52.930;15.562;2022-07-18T00:15:22;13.80;1.00
18690;DHT22;9782;52.930;15.562;2022-07-18T00:17:49;13.80;1.00
18690;DHT22;9782;52.930;15.562;2022-07-18T00:20:16;13.70;1.00
18690;DHT22;9782;52.930;15.562;2022-07-18T00:22:43;13.80;1.00
18690;DHT22;9782;52.930;15.562;2022-07-18T00:25:10;13.70;1.00
18690;DHT22;9782;52.930;15.562;2022-07-18T00:27:37;13.70;1.00
18690;DHT22;9782;52.930;15.562;2022-07-18T00:30:07;13.70;1.00
18690;DHT22;9782;52.930;15.562;2022-07-18T00:32:35;13.70;1.00
18690;DHT22;9782;52.930;15.562;2022-07-18T00:35:02;13.60;1.00
18690;DHT22;9782;52.930;15.562;2022-07-18T00:37:29;13.60;1.00
18690;DHT22;9782;52.930;15.562;2022-07-18T00:39:56;13.60;1.00
18690;DHT22;9782;52.930;15.562;2022-07-18T00:42:23;13.60;1.00
18690;DHT22;9782;52.930;15.562;2022-07-18T00:44:53;13.50;1.00
18690;DHT22;9782;52.930;15.562;2022-07-18T00:47:22;13.40;1.00
18690;DHT22;9782;52.930;15.562;2022-07-18T00:49:49;13.40;1.00
18690;DHT22;9782;52.930;15.562;2022-07-18T00:52:16;13.40;1.00
18690;DHT22;9782;52.930;15.562;2022-07-18T00:54:44;13.30;1.00
18690;DHT22;9782;52.930;15.562;2022-07-18T00:57:11;13.30;1.00
18690;DHT22;9782;52.930;15.562;2022-07-18T00:59:40;13.30;1.00
18690;DHT22;9782;52.930;15.562;2022-07-18T01:02:26;13.30;1.00
18690;DHT22;9782;52.930;15.562;2022-07-18T01:04:53;13.20;1.00
18690;DHT22;9782;52.930;15.562;2022-07-18T01:07:20;13.10;1.00
18690;DHT22;9782;52.930;15.562;2022-07-18T01:09:47;13.10;1.00
18690;DHT22;9782;52.930;15.562;2022-07-18T01:12:15;13.00;1.00
18690;DHT22;9782;52.930;15.562;2022-07-18T01:14:43;13.00;1.00
18690;DHT22;9782;52.930;15.562;2022-07-18T01:17:15;13.00;1.00
18690;DHT22;9782;52.930;15.562;2022-07-18T01:19:44;12.90;1.00
18690;DHT22;9782;52.930;15.562;2022-07-18T01:22:14;12.90;1.00
18690;DHT22;9782;52.930;15.562;2022-07-18T01:24:42;13.00;1.00
18690;DHT22;9782;52.930;15.562;2022-07-18T01:27:13;12.90;1.00
18690;DHT22;9782;52.930;15.562;2022-07-18T01:29:40;12.90;1.00
18690;DHT22;9782;52.930;15.562;2022-07-18T01:32:08;12.90;1.00
18690;DHT22;9782;52.930;15.562;2022-07-18T01:34:35;13.00;1.00
18690;DHT22;9782;52.930;15.562;2022-07-18T01:37:03;12.90;1.00
18690;DHT22;9782;52.930;15.562;2022-07-18T01:39:32;13.00;1.00
18690;DHT22;9782;52.930;15.562;2022-07-18T01:42:01;13.00;1.00
18690;DHT22;9782;52.930;15.562;2022-07-18T01:44:28;13.10;1.00
18690;DHT22;9782;52.930;15.562;2022-07-18T01:46:55;13.10;1.00
18690;DHT22;9782;52.930;15.562;2022-07-18T01:49:24;13.10;1.00
18690;DHT22;9782;52.930;15.562;2022-07-18T01:51:53;13.20;1.00
18690;DHT22;9782;52.930;15.562;2022-07-18T01:54:21;13.20;1.00
18690;DHT22;9782;52.930;15.562;2022-07-18T01:56:50;13.30;1.00
18690;DHT22;9782;52.930;15.562;2022-07-18T01:59:18;13.30;1.00
18690;DHT22;9782;52.930;15.562;2022-07-18T02:01:45;13.30;1.00
18690;DHT22;9782;52.930;15.562;2022-07-18T02:04:13;13.40;1.00
18690;DHT22;9782;52.930;15.562;2022-07-18T02:06:40;13.40;1.00
18690;DHT22;9782;52.930;15.562;2022-07-18T02:09:09;13.40;1.00
18690;DHT22;9782;52.930;15.562;2022-07-18T02:11:36;13.40;1.00
18690;DHT22;9782;52.930;15.562;2022-07-18T02:14:05;13.50;1.00
18690;DHT22;9782;52.930;15.562;2022-07-18T02:16:32;13.50;1.00
18690;DHT22;9782;52.930;15.562;2022-07-18T02:18:59;13.50;1.00
18690;DHT22;9782;52.930;15.562;2022-07-18T02:21:26;13.50;1.00
18690;DHT22;9782;52.930;15.562;2022-07-18T02:23:53;13.50;1.00
18690;DHT22;9782;52.930;15.562;2022-07-18T02:26:20;13.50;1.00
18690;DHT22;9782;52.930;15.562;2022-07-18T02:28:47;13.50;1.00
18690;DHT22;9782;52.930;15.562;2022-07-18T02:31:16;13.50;1.00
18690;DHT22;9782;52.930;15.562;2022-07-18T02:33:43;13.60;1.00
18690;DHT22;9782;52.930;15.562;2022-07-18T02:36:10;13.60;1.00
18690;DHT22;9782;52.930;15.562;2022-07-18T02:38:37;13.60;1.00
18690;DHT22;9782;52.930;15.562;2022-07-18T02:41:04;13.60;1.00
18690;DHT22;9782;52.930;15.562;2022-07-18T02:43:31;13.60;1.00
18690;DHT22;9782;52.930;15.562;2022-07-18T02:45:58;13.60;1.00
18690;DHT22;9782;52.930;15.562;2022-07-18T02:48:27;13.70;1.00
18690;DHT22;9782;52.930;15.562;2022-07-18T02:50:54;13.70;1.00
18690;DHT22;9782;52.930;15.562;2022-07-18T02:53:21;13.70;1.00
18690;DHT22;9782;52.930;15.562;2022-07-18T02:55:49;13.70;1.00
18690;DHT22;9782;52.930;15.562;2022-07-18T02:58:16;13.70;1.00
18690;DHT22;9782;52.930;15.562;2022-07-18T03:00:44;13.70;1.00
18690;DHT22;9782;52.930;15.562;2022-07-18T03:03:11;13.70;1.00
18690;DHT22;9782;52.930;15.562;2022-07-18T03:05:39;13.70;1.00
18690;DHT22;9782;52.930;15.562;2022-07-18T03:08:06;13.70;1.00
18690;DHT22;9782;52.930;15.562;2022-07-18T03:10:33;13.80;1.00
18690;DHT22;9782;52.930;15.562;2022-07-18T03:13:00;13.80;1.00
18690;DHT22;9782;52.930;15.562;2022-07-18T03:15:27;13.80;1.00
18690;DHT22;9782;52.930;15.562;2022-07-18T03:17:54;13.80;1.00
18690;DHT22;9782;52.930;15.562;2022-07-18T03:20:21;13.80;1.00
18690;DHT22;9782;52.930;15.562;2022-07-18T03:22:50;13.90;1.00
18690;DHT22;9782;52.930;15.562;2022-07-18T03:25:17;13.90;1.00
18690;DHT22;9782;52.930;15.562;2022-07-18T03:27:44;14.00;1.00
18690;DHT22;9782;52.930;15.562;2022-07-18T03:30:12;14.00;1.00
18690;DHT22;9782;52.930;15.562;2022-07-18T03:32:39;14.10;99.90
18690;DHT22;9782;52.930;15.562;2022-07-18T03:35:07;14.10;1.00
18690;DHT22;9782;52.930;15.562;2022-07-18T03:37:34;14.10;1.00
18690;DHT22;9782;52.930;15.562;2022-07-18T03:40:03;14.20;1.00
18690;DHT22;9782;52.930;15.562;2022-07-18T03:42:30;14.20;1.00
18690;DHT22;9782;52.930;15.562;2022-07-18T03:44:57;14.20;1.00
18690;DHT22;9782;52.930;15.562;2022-07-18T03:47:24;14.30;1.00
18690;DHT22;9782;52.930;15.562;2022-07-18T03:49:51;14.40;1.00
18690;DHT22;9782;52.930;15.562;2022-07-18T03:52:18;14.40;1.00
18690;DHT22;9782;52.930;15.562;2022-07-18T03:54:46;14.40;1.00
18690;DHT22;9782;52.930;15.562;2022-07-18T03:57:14;14.50;1.00
18690;DHT22;9782;52.930;15.562;2022-07-18T03:59:41;14.50;1.00
18690;DHT22;9782;52.930;15.562;2022-07-18T04:02:08;14.50;1.00
18690;DHT22;9782;52.930;15.562;2022-07-18T04:04:35;14.60;1.00
18690;DHT22;9782;52.930;15.562;2022-07-18T04:07:02;14.60;1.00
18690;DHT22;9782;52.930;15.562;2022-07-18T04:09:30;14.70;1.00
18690;DHT22;9782;52.930;15.562;2022-07-18T04:11:57;14.70;1.00
18690;DHT22;9782;52.930;15.562;2022-07-18T04:14:25;14.70;1.00
18690;DHT22;9782;52.930;15.562;2022-07-18T04:16:52;14.80;1.00
18690;DHT22;9782;52.930;15.562;2022-07-18T04:19:19;14.80;1.00
18690;DHT22;9782;52.930;15.562;2022-07-18T04:21:48;14.90;1.00
18690;DHT22;9782;52.930;15.562;2022-07-18T04:24:16;14.90;1.00
18690;DHT22;9782;52.930;15.562;2022-07-18T04:26:43;14.90;1.00
18690;DHT22;9782;52.930;15.562;2022-07-18T04:29:10;15.00;1.00
18690;DHT22;9782;52.930;15.562;2022-07-18T04:31:38;15.00;1.00
18690;DHT22;9782;52.930;15.562;2022-07-18T04:34:05;15.10;1.00
18690;DHT22;9782;52.930;15.562;2022-07-18T04:36:32;15.10;1.00
18690;DHT22;9782;52.930;15.562;2022-07-18T04:38:59;15.20;1.00
18690;DHT22;9782;52.930;15.562;2022-07-18T04:41:49;15.20;1.00
18690;DHT22;9782;52.930;15.562;2022-07-18T04:44:23;15.30;1.00
18690;DHT22;9782;52.930;15.562;2022-07-18T04:47:14;15.40;1.00
18690;DHT22;9782;52.930;15.562;2022-07-18T04:49:43;15.50;1.00
18690;DHT22;9782;52.930;15.562;2022-07-18T04:52:10;15.60;1.00
18690;DHT22;9782;52.930;15.562;2022-07-18T04:54:37;15.70;1.00
18690;DHT22;9782;52.930;15.562;2022-07-18T04:57:05;15.80;1.00
18690;DHT22;9782;52.930;15.562;2022-07-18T04:59:32;16.00;1.00
18690;DHT22;9782;52.930;15.562;2022-07-18T05:01:59;16.10;1.00
18690;DHT22;9782;52.930;15.562;2022-07-18T05:04:28;16.20;1.00
18690;DHT22;9782;52.930;15.562;2022-07-18T05:06:55;16.30;1.00
18690;DHT22;9782;52.930;15.562;2022-07-18T05:09:23;16.50;1.00
18690;DHT22;9782;52.930;15.562;2022-07-18T05:11:49;16.70;1.00
18690;DHT22;9782;52.930;15.562;2022-07-18T05:14:17;16.80;1.00
18690;DHT22;9782;52.930;15.562;2022-07-18T05:16:43;17.00;1.00
18690;DHT22;9782;52.930;15.562;2022-07-18T05:19:11;17.20;1.00
18690;DHT22;9782;52.930;15.562;2022-07-18T05:21:39;17.40;1.00
18690;DHT22;9782;52.930;15.562;2022-07-18T05:24:06;17.60;1.00
18690;DHT22;9782;52.930;15.562;2022-07-18T05:26:33;17.80;1.00
18690;DHT22;9782;52.930;15.562;2022-07-18T05:29:01;18.00;1.00
18690;DHT22;9782;52.930;15.562;2022-07-18T05:43:00;18.20;1.00
18690;DHT22;9782;52.930;15.562;2022-07-18T05:45:29;21.40;1.00
18690;DHT22;9782;52.930;15.562;2022-07-18T05:47:55;23.20;1.00
18690;DHT22;9782;52.930;15.562;2022-07-18T05:50:22;25.20;1.00
18690;DHT22;9782;52.930;15.562;2022-07-18T05:52:50;27.00;99.90
18690;DHT22;9782;52.930;15.562;2022-07-18T05:55:17;28.40;99.90
18690;DHT22;9782;52.930;15.562;2022-07-18T05:57:46;29.80;99.90
18690;DHT22;9782;52.930;15.562;2022-07-18T06:00:19;30.80;99.90
18690;DHT22;9782;52.930;15.562;2022-07-18T06:02:47;30.60;99.90
18690;DHT22;9782;52.930;15.562;2022-07-18T06:05:15;30.20;99.90
18690;DHT22;9782;52.930;15.562;2022-07-18T06:07:42;29.60;99.90
18690;DHT22;9782;52.930;15.562;2022-07-18T06:10:10;29.00;99.90
18690;DHT22;9782;52.930;15.562;2022-07-18T06:12:37;28.30;99.90
18690;DHT22;9782;52.930;15.562;2022-07-18T06:15:06;27.80;99.90
18690;DHT22;9782;52.930;15.562;2022-07-18T06:17:34;27.30;99.90
18690;DHT22;9782;52.930;15.562;2022-07-18T06:20:02;27.00;99.90
18690;DHT22;9782;52.930;15.562;2022-07-18T06:22:31;26.80;99.90
18690;DHT22;9782;52.930;15.562;2022-07-18T06:24:58;26.80;99.90
18690;DHT22;9782;52.930;15.562;2022-07-18T06:27:25;26.70;99.90
18690;DHT22;9782;52.930;15.562;2022-07-18T06:29:52;26.80;99.90
18690;DHT22;9782;52.930;15.562;2022-07-18T06:32:19;27.00;99.90
18690;DHT22;9782;52.930;15.562;2022-07-18T06:34:47;27.30;99.90
18690;DHT22;9782;52.930;15.562;2022-07-18T06:37:14;27.50;99.90
18690;DHT22;9782;52.930;15.562;2022-07-18T06:39:41;27.70;99.90
18690;DHT22;9782;52.930;15.562;2022-07-18T06:42:08;28.10;99.90
18690;DHT22;9782;52.930;15.562;2022-07-18T06:44:45;28.30;99.90
18690;DHT22;9782;52.930;15.562;2022-07-18T06:47:12;28.50;99.90
18690;DHT22;9782;52.930;15.562;2022-07-18T06:49:39;28.60;99.90
18690;DHT22;9782;52.930;15.562;2022-07-18T06:52:07;28.70;99.90
18690;DHT22;9782;52.930;15.562;2022-07-18T06:54:37;28.80;99.90
18690;DHT22;9782;52.930;15.562;2022-07-18T06:57:06;28.70;99.90
18690;DHT22;9782;52.930;15.562;2022-07-18T06:59:35;28.50;99.90
18690;DHT22;9782;52.930;15.562;2022-07-18T07:02:02;28.40;99.90
18690;DHT22;9782;52.930;15.562;2022-07-18T07:04:30;28.40;99.90
18690;DHT22;9782;52.930;15.562;2022-07-18T07:06:57;28.10;99.90
18690;DHT22;9782;52.930;15.562;2022-07-18T07:09:25;27.90;99.90
18690;DHT22;9782;52.930;15.562;2022-07-18T07:11:53;27.80;99.90
18690;DHT22;9782;52.930;15.562;2022-07-18T07:14:24;27.60;99.90
18690;DHT22;9782;52.930;15.562;2022-07-18T07:16:51;27.50;99.90
18690;DHT22;9782;52.930;15.562;2022-07-18T07:19:18;27.30;99.90
18690;DHT22;9782;52.930;15.562;2022-07-18T07:21:45;27.00;99.90
18690;DHT22;9782;52.930;15.562;2022-07-18T07:24:12;26.90;99.90
18690;DHT22;9782;52.930;15.562;2022-07-18T07:26:40;26.80;99.90
18690;DHT22;9782;52.930;15.562;2022-07-18T07:29:07;26.70;99.90
18690;DHT22;9782;52.930;15.562;2022-07-18T07:31:34;26.80;99.90
18690;DHT22;9782;52.930;15.562;2022-07-18T07:34:01;26.90;99.90
18690;DHT22;9782;52.930;15.562;2022-07-18T07:36:29;27.20;99.90
18690;DHT22;9782;52.930;15.562;2022-07-18T07:38:56;27.50;99.90
18690;DHT22;9782;52.930;15.562;2022-07-18T07:41:23;27.60;99.90
18690;DHT22;9782;52.930;15.562;2022-07-18T07:43:51;28.10;99.90
18690;DHT22;9782;52.930;15.562;2022-07-18T07:46:18;28.70;99.90
18690;DHT22;9782;52.930;15.562;2022-07-18T07:48:45;29.40;99.90
18690;DHT22;9782;52.930;15.562;2022-07-18T07:51:13;29.90;99.90
18690;DHT22;9782;52.930;15.562;2022-07-18T07:53:40;30.60;99.90
18690;DHT22;9782;52.930;15.562;2022-07-18T07:56:07;31.50;99.90
18690;DHT22;9782;52.930;15.562;2022-07-18T07:58:34;32.20;99.90
18690;DHT22;9782;52.930;15.562;2022-07-18T08:01:03;32.70;99.90
18690;DHT22;9782;52.930;15.562;2022-07-18T08:03:30;33.20;99.90
18690;DHT22;9782;52.930;15.562;2022-07-18T08:05:57;33.90;99.90
18690;DHT22;9782;52.930;15.562;2022-07-18T08:08:24;34.50;99.90
18690;DHT22;9782;52.930;15.562;2022-07-18T08:10:52;35.20;99.90
18690;DHT22;9782;52.930;15.562;2022-07-18T08:13:19;35.90;99.90
18690;DHT22;9782;52.930;15.562;2022-07-18T08:15:46;36.40;99.90
18690;DHT22;9782;52.930;15.562;2022-07-18T08:18:15;36.80;99.90
18690;DHT22;9782;52.930;15.562;2022-07-18T08:20:42;37.40;99.90
18690;DHT22;9782;52.930;15.562;2022-07-18T08:23:09;37.60;99.90
18690;DHT22;9782;52.930;15.562;2022-07-18T08:25:38;37.80;99.90
18690;DHT22;9782;52.930;15.562;2022-07-18T08:28:06;38.10;99.90
18690;DHT22;9782;52.930;15.562;2022-07-18T08:30:34;38.20;99.90
18690;DHT22;9782;52.930;15.562;2022-07-18T08:33:03;38.40;99.90
18690;DHT22;9782;52.930;15.562;2022-07-18T08:35:32;38.60;99.90
18690;DHT22;9782;52.930;15.562;2022-07-18T08:38:00;38.80;99.90
18690;DHT22;9782;52.930;15.562;2022-07-18T08:40:28;38.90;99.90
18690;DHT22;9782;52.930;15.562;2022-07-18T08:42:56;38.90;99.90
18690;DHT22;9782;52.930;15.562;2022-07-18T08:45:24;38.70;99.90
18690;DHT22;9782;52.930;15.562;2022-07-18T08:47:52;38.40;99.90
18690;DHT22;9782;52.930;15.562;2022-07-18T08:50:21;38.30;99.90
18690;DHT22;9782;52.930;15.562;2022-07-18T08:52:51;38.50;99.90
18690;DHT22;9782;52.930;15.562;2022-07-18T08:55:19;38.70;99.90
18690;DHT22;9782;52.930;15.562;2022-07-18T09:00:22;39.10;99.90
18690;DHT22;9782;52.930;15.562;2022-07-18T09:02:57;39.40;99.90
18690;DHT22;9782;52.930;15.562;2022-07-18T09:05:26;39.70;99.90
18690;DHT22;9782;52.930;15.562;2022-07-18T09:08:11;39.90;99.90
18690;DHT22;9782;52.930;15.562;2022-07-18T09:10:48;40.10;99.90
18690;DHT22;9782;52.930;15.562;2022-07-18T09:13:17;40.00;99.90
18690;DHT22;9782;52.930;15.562;2022-07-18T09:16:02;39.90;99.90
18690;DHT22;9782;52.930;15.562;2022-07-18T09:18:30;39.90;99.90
18690;DHT22;9782;52.930;15.562;2022-07-18T09:20:58;39.70;99.90
18690;DHT22;9782;52.930;15.562;2022-07-18T09:23:29;39.60;99.90
18690;DHT22;9782;52.930;15.562;2022-07-18T09:25:56;39.40;99.90
18690;DHT22;9782;52.930;15.562;2022-07-18T09:28:25;39.20;99.90
18690;DHT22;9782;52.930;15.562;2022-07-18T09:30:52;38.90;99.90
18690;DHT22;9782;52.930;15.562;2022-07-18T09:33:20;38.70;99.90
18690;DHT22;9782;52.930;15.562;2022-07-18T09:35:48;38.40;99.90
18690;DHT22;9782;52.930;15.562;2022-07-18T09:38:17;37.80;99.90
18690;DHT22;9782;52.930;15.562;2022-07-18T09:40:47;37.50;99.90
18690;DHT22;9782;52.930;15.562;2022-07-18T09:43:16;37.00;99.90
18690;DHT22;9782;52.930;15.562;2022-07-18T09:45:45;36.50;99.90
18690;DHT22;9782;52.930;15.562;2022-07-18T09:48:15;35.90;99.90
18690;DHT22;9782;52.930;15.562;2022-07-18T09:50:49;35.60;99.90
18690;DHT22;9782;52.930;15.562;2022-07-18T09:53:18;35.30;99.90
18690;DHT22;9782;52.930;15.562;2022-07-18T09:55:52;35.00;99.90
18690;DHT22;9782;52.930;15.562;2022-07-18T09:58:20;34.60;99.90
18690;DHT22;9782;52.930;15.562;2022-07-18T10:00:48;34.20;99.90
18690;DHT22;9782;52.930;15.562;2022-07-18T10:03:15;33.90;99.90
18690;DHT22;9782;52.930;15.562;2022-07-18T10:05:44;33.70;99.90
18690;DHT22;9782;52.930;15.562;2022-07-18T10:08:13;33.50;99.90
18690;DHT22;9782;52.930;15.562;2022-07-18T10:10:41;33.20;99.90
18690;DHT22;9782;52.930;15.562;2022-07-18T10:13:11;33.20;99.90
18690;DHT22;9782;52.930;15.562;2022-07-18T10:15:40;33.00;99.90
18690;DHT22;9782;52.930;15.562;2022-07-18T10:18:09;32.80;99.90
18690;DHT22;9782;52.930;15.562;2022-07-18T10:20:37;32.70;99.90
18690;DHT22;9782;52.930;15.562;2022-07-18T10:23:16;32.60;99.90
18690;DHT22;9782;52.930;15.562;2022-07-18T10:25:44;32.40;99.90
18690;DHT22;9782;52.930;15.562;2022-07-18T10:28:13;32.30;99.90
18690;DHT22;9782;52.930;15.562;2022-07-18T10:30:44;32.20;99.90
18690;DHT22;9782;52.930;15.562;2022-07-18T10:33:39;32.10;99.90
18690;DHT22;9782;52.930;15.562;2022-07-18T10:36:10;32.20;99.90
18690;DHT22;9782;52.930;15.562;2022-07-18T10:38:39;32.20;99.90
18690;DHT22;9782;52.930;15.562;2022-07-18T10:41:25;31.90;99.90
18690;DHT22;9782;52.930;15.562;2022-07-18T10:43:54;31.50;99.90
18690;DHT22;9782;52.930;15.562;2022-07-18T10:46:21;31.50;99.90
18690;DHT22;9782;52.930;15.562;2022-07-18T10:48:56;31.50;99.90
18690;DHT22;9782;52.930;15.562;2022-07-18T10:51:31;31.40;99.90
18690;DHT22;9782;52.930;15.562;2022-07-18T10:54:05;31.40;99.90
18690;DHT22;9782;52.930;15.562;2022-07-18T10:59:20;31.10;99.90
18690;DHT22;9782;52.930;15.562;2022-07-18T11:01:55;31.10;99.90
18690;DHT22;9782;52.930;15.562;2022-07-18T11:04:24;31.10;99.90
18690;DHT22;9782;52.930;15.562;2022-07-18T11:06:55;31.00;99.90
18690;DHT22;9782;52.930;15.562;2022-07-18T11:09:31;31.00;99.90
18690;DHT22;9782;52.930;15.562;2022-07-18T11:12:28;31.00;99.90
18690;DHT22;9782;52.930;15.562;2022-07-18T11:15:09;30.80;99.90
18690;DHT22;9782;52.930;15.562;2022-07-18T11:18:02;30.70;99.90
18690;DHT22;9782;52.930;15.562;2022-07-18T11:20:41;30.70;99.90
18690;DHT22;9782;52.930;15.562;2022-07-18T11:23:19;30.70;99.90
18690;DHT22;9782;52.930;15.562;2022-07-18T11:25:47;30.60;99.90
18690;DHT22;9782;52.930;15.562;2022-07-18T11:28:14;30.60;99.90
18690;DHT22;9782;52.930;15.562;2022-07-18T11:30:43;30.60;99.90
18690;DHT22;9782;52.930;15.562;2022-07-18T11:33:22;30.80;99.90
18690;DHT22;9782;52.930;15.562;2022-07-18T11:35:50;30.90;99.90
18690;DHT22;9782;52.930;15.562;2022-07-18T11:38:17;31.10;99.90
18690;DHT22;9782;52.930;15.562;2022-07-18T11:40:51;31.20;99.90
18690;DHT22;9782;52.930;15.562;2022-07-18T11:43:22;31.30;99.90
18690;DHT22;9782;52.930;15.562;2022-07-18T11:46:00;31.40;99.90
18690;DHT22;9782;52.930;15.562;2022-07-18T11:48:27;31.50;99.90
18690;DHT22;9782;52.930;15.562;2022-07-18T11:50:54;31.50;99.90
18690;DHT22;9782;52.930;15.562;2022-07-18T11:53:21;31.60;99.90
18690;DHT22;9782;52.930;15.562;2022-07-18T11:55:48;31.60;99.90
18690;DHT22;9782;52.930;15.562;2022-07-18T11:58:16;31.60;99.90
18690;DHT22;9782;52.930;15.562;2022-07-18T12:00:43;31.40;99.90
18690;DHT22;9782;52.930;15.562;2022-07-18T12:03:12;31.30;99.90
18690;DHT22;9782;52.930;15.562;2022-07-18T12:05:39;31.20;99.90
18690;DHT22;9782;52.930;15.562;2022-07-18T12:08:25;31.20;99.90
18690;DHT22;9782;52.930;15.562;2022-07-18T12:11:02;31.30;99.90
18690;DHT22;9782;52.930;15.562;2022-07-18T12:13:38;31.40;99.90
18690;DHT22;9782;52.930;15.562;2022-07-18T12:16:05;31.40;99.90
18690;DHT22;9782;52.930;15.562;2022-07-18T12:18:33;31.50;99.90
18690;DHT22;9782;52.930;15.562;2022-07-18T12:21:09;31.40;99.90
18690;DHT22;9782;52.930;15.562;2022-07-18T12:23:35;31.50;99.90
18690;DHT22;9782;52.930;15.562;2022-07-18T12:26:02;31.50;99.90
18690;DHT22;9782;52.930;15.562;2022-07-18T12:28:29;31.50;99.90
18690;DHT22;9782;52.930;15.562;2022-07-18T12:30:56;31.40;99.90
18690;DHT22;9782;52.930;15.562;2022-07-18T12:33:23;31.40;99.90
18690;DHT22;9782;52.930;15.562;2022-07-18T12:35:58;31.50;99.90
18690;DHT22;9782;52.930;15.562;2022-07-18T12:38:26;31.80;99.90
18690;DHT22;9782;52.930;15.562;2022-07-18T12:40:54;32.10;99.90
18690;DHT22;9782;52.930;15.562;2022-07-18T12:43:23;32.30;99.90
18690;DHT22;9782;52.930;15.562;2022-07-18T12:45:51;32.30;99.90
18690;DHT22;9782;52.930;15.562;2022-07-18T12:48:19;32.30;99.90
18690;DHT22;9782;52.930;15.562;2022-07-18T12:50:53;32.30;99.90
18690;DHT22;9782;52.930;15.562;2022-07-18T12:53:22;32.30;99.90
18690;DHT22;9782;52.930;15.562;2022-07-18T12:55:49;32.10;99.90
18690;DHT22;9782;52.930;15.562;2022-07-18T12:58:16;32.10;99.90
18690;DHT22;9782;52.930;15.562;2022-07-18T13:00:45;32.00;99.90
18690;DHT22;9782;52.930;15.562;2022-07-18T13:03:13;31.80;99.90
18690;DHT22;9782;52.930;15.562;2022-07-18T13:05:40;31.60;99.90
18690;DHT22;9782;52.930;15.562;2022-07-18T13:08:08;31.60;99.90
18690;DHT22;9782;52.930;15.562;2022-07-18T13:10:38;31.50;99.90
18690;DHT22;9782;52.930;15.562;2022-07-18T13:13:06;31.50;99.90
18690;DHT22;9782;52.930;15.562;2022-07-18T13:15:34;31.40;99.90
18690;DHT22;9782;52.930;15.562;2022-07-18T13:18:02;31.30;99.90
18690;DHT22;9782;52.930;15.562;2022-07-18T13:20:29;31.40;99.90
18690;DHT22;9782;52.930;15.562;2022-07-18T13:22:57;31.30;99.90
18690;DHT22;9782;52.930;15.562;2022-07-18T13:25:27;31.40;99.90
18690;DHT22;9782;52.930;15.562;2022-07-18T13:27:56;31.30;99.90
18690;DHT22;9782;52.930;15.562;2022-07-18T13:30:23;31.30;99.90
18690;DHT22;9782;52.930;15.562;2022-07-18T13:32:53;31.20;99.90
18690;DHT22;9782;52.930;15.562;2022-07-18T13:35:24;31.00;99.90
18690;DHT22;9782;52.930;15.562;2022-07-18T13:40:56;30.70;99.90
18690;DHT22;9782;52.930;15.562;2022-07-18T13:43:25;30.60;99.90
18690;DHT22;9782;52.930;15.562;2022-07-18T13:45:52;30.60;99.90
18690;DHT22;9782;52.930;15.562;2022-07-18T13:48:20;30.50;99.90
18690;DHT22;9782;52.930;15.562;2022-07-18T13:51:19;30.50;99.90
18690;DHT22;9782;52.930;15.562;2022-07-18T13:54:05;30.40;99.90
18690;DHT22;9782;52.930;15.562;2022-07-18T14:03:18;30.00;99.90
18690;DHT22;9782;52.930;15.562;2022-07-18T14:06:00;29.90;99.90
18690;DHT22;9782;52.930;15.562;2022-07-18T14:08:46;29.90;99.90
18690;DHT22;9782;52.930;15.562;2022-07-18T14:14:49;29.80;99.90
18690;DHT22;9782;52.930;15.562;2022-07-18T14:17:41;29.70;99.90
18690;DHT22;9782;52.930;15.562;2022-07-18T14:20:22;29.60;99.90
18690;DHT22;9782;52.930;15.562;2022-07-18T14:24:30;29.50;99.90
18690;DHT22;9782;52.930;15.562;2022-07-18T14:26:24;29.50;99.90
18690;DHT22;9782;52.930;15.562;2022-07-18T14:29:16;29.40;99.90
18690;DHT22;9782;52.930;15.562;2022-07-18T14:31:58;29.30;99.90
18690;DHT22;9782;52.930;15.562;2022-07-18T14:34:40;29.20;99.90
18690;DHT22;9782;52.930;15.562;2022-07-18T14:37:34;29.20;99.90
18690;DHT22;9782;52.930;15.562;2022-07-18T14:40:25;29.20;99.90
18690;DHT22;9782;52.930;15.562;2022-07-18T14:43:18;29.10;99.90
18690;DHT22;9782;52.930;15.562;2022-07-18T14:54:23;28.60;99.90
18690;DHT22;9782;52.930;15.562;2022-07-18T14:56:51;28.40;99.90
18690;DHT22;9782;52.930;15.562;2022-07-18T14:59:46;28.30;99.90
18690;DHT22;9782;52.930;15.562;2022-07-18T15:02:36;28.20;99.90
18690;DHT22;9782;52.930;15.562;2022-07-18T15:05:07;28.00;99.90
18690;DHT22;9782;52.930;15.562;2022-07-18T15:08:14;27.90;99.90
18690;DHT22;9782;52.930;15.562;2022-07-18T15:13:56;27.60;99.90
18690;DHT22;9782;52.930;15.562;2022-07-18T15:16:45;27.50;99.90
18690;DHT22;9782;52.930;15.562;2022-07-18T15:19:14;27.40;99.90
18690;DHT22;9782;52.930;15.562;2022-07-18T15:21:56;27.30;99.90
18690;DHT22;9782;52.930;15.562;2022-07-18T15:24:27;27.30;99.90
18690;DHT22;9782;52.930;15.562;2022-07-18T15:27:00;27.40;99.90
18690;DHT22;9782;52.930;15.562;2022-07-18T15:29:35;27.40;99.90
18690;DHT22;9782;52.930;15.562;2022-07-18T15:32:10;27.40;99.90
18690;DHT22;9782;52.930;15.562;2022-07-18T15:34:46;27.40;99.90
18690;DHT22;9782;52.930;15.562;2022-07-18T15:37:23;27.40;99.90
18690;DHT22;9782;52.930;15.562;2022-07-18T15:40:02;27.40;99.90
18690;DHT22;9782;52.930;15.562;2022-07-18T15:42:32;27.40;99.90
18690;DHT22;9782;52.930;15.562;2022-07-18T15:45:25;27.40;99.90
18690;DHT22;9782;52.930;15.562;2022-07-18T15:47:55;27.40;99.90
18690;DHT22;9782;52.930;15.562;2022-07-18T15:50:32;27.50;99.90
18690;DHT22;9782;52.930;15.562;2022-07-18T15:53:06;27.60;99.90
18690;DHT22;9782;52.930;15.562;2022-07-18T15:55:46;27.70;99.90
18690;DHT22;9782;52.930;15.562;2022-07-18T15:58:33;27.80;99.90
18690;DHT22;9782;52.930;15.562;2022-07-18T16:01:06;27.90;99.90
18690;DHT22;9782;52.930;15.562;2022-07-18T16:03:42;28.00;99.90
18690;DHT22;9782;52.930;15.562;2022-07-18T16:06:10;28.00;99.90
18690;DHT22;9782;52.930;15.562;2022-07-18T16:08:55;28.10;99.90
18690;DHT22;9782;52.930;15.562;2022-07-18T16:11:42;28.10;99.90
18690;DHT22;9782;52.930;15.562;2022-07-18T16:14:14;28.10;99.90
18690;DHT22;9782;52.930;15.562;2022-07-18T16:16:48;28.20;99.90
18690;DHT22;9782;52.930;15.562;2022-07-18T16:19:25;28.20;99.90
18690;DHT22;9782;52.930;15.562;2022-07-18T16:21:56;28.10;99.90
18690;DHT22;9782;52.930;15.562;2022-07-18T16:24:29;28.10;99.90
18690;DHT22;9782;52.930;15.562;2022-07-18T16:27:08;28.10;99.90
18690;DHT22;9782;52.930;15.562;2022-07-18T16:29:44;28.00;99.90
18690;DHT22;9782;52.930;15.562;2022-07-18T16:32:23;28.00;99.90
18690;DHT22;9782;52.930;15.562;2022-07-18T16:35:10;27.80;99.90
18690;DHT22;9782;52.930;15.562;2022-07-18T16:37:42;27.70;99.90